createdAt,value
2023-02-22T00:00:27.418Z,10.9
2023-02-22T00:01:36.115Z,10.9
2023-02-22T00:02:44.201Z,10.9
2023-02-22T00:03:52.716Z,10.8
2023-02-22T00:05:01.104Z,10.8
2023-02-22T00:06:09.479Z,10.8
2023-02-22T00:07:18.025Z,12.3
2023-02-22T00:08:26.388Z,12.3
2023-02-22T00:09:34.764Z,12.3
2023-02-22T00:10:43.342Z,12.1
2023-02-22T00:11:51.717Z,12.1
2023-02-22T00:13:00.084Z,12.1
2023-02-22T00:14:08.641Z,10.7
2023-02-22T00:15:17.016Z,10.7
2023-02-22T00:16:25.446Z,10.7
2023-02-22T00:17:33.945Z,10.4
2023-02-22T00:18:42.299Z,10.4
2023-02-22T00:19:50.682Z,10.4
2023-02-22T00:20:59.251Z,9.3
2023-02-22T00:22:07.633Z,9.3
2023-02-22T00:23:15.970Z,9.3
2023-02-22T00:24:24.572Z,10.5
2023-02-22T00:25:32.930Z,10.5
2023-02-22T00:26:41.303Z,10.5
2023-02-22T00:27:49.843Z,13.2
2023-02-22T00:28:58.233Z,13.2
2023-02-22T00:30:06.679Z,13.2
2023-02-22T00:31:15.705Z,10
2023-02-22T00:32:23.563Z,10
2023-02-22T00:33:31.956Z,10
2023-02-22T00:34:40.518Z,10.5
2023-02-22T00:35:48.906Z,10.5
2023-02-22T00:36:57.260Z,10.5
2023-02-22T00:38:05.856Z,9.8
2023-02-22T00:39:14.182Z,9.8
2023-02-22T00:40:22.547Z,9.8
2023-02-22T00:41:31.142Z,10.2
2023-02-22T00:42:39.455Z,10.2
2023-02-22T00:43:47.816Z,10.2
2023-02-22T00:44:56.389Z,10.3
2023-02-22T00:46:04.902Z,10.3
2023-02-22T00:47:13.154Z,10.3
2023-02-22T00:48:21.763Z,10.3
2023-02-22T00:49:30.098Z,10.3
2023-02-22T00:50:38.478Z,10.3
2023-02-22T00:51:47.041Z,11.8
2023-02-22T00:52:55.401Z,11.8
2023-02-22T00:54:03.783Z,11.8
2023-02-22T00:55:12.394Z,10.3
2023-02-22T00:56:20.755Z,10.3
2023-02-22T00:57:29.112Z,10.3
2023-02-22T00:58:37.700Z,10.7
2023-02-22T00:59:46.054Z,10.7
2023-02-22T01:00:54.457Z,10.7
2023-02-22T01:02:03.011Z,12.6
2023-02-22T01:03:11.372Z,12.6
2023-02-22T01:04:19.715Z,12.6
2023-02-22T01:05:28.285Z,10.9
2023-02-22T01:06:36.655Z,10.9
2023-02-22T01:07:45.683Z,10.9
2023-02-22T01:08:54.264Z,10.2
2023-02-22T01:10:02.645Z,10.2
2023-02-22T01:11:11.061Z,10.2
2023-02-22T01:12:20.104Z,10.1
2023-02-22T01:13:29.052Z,10.1
2023-02-22T01:14:37.655Z,10.1
2023-02-22T01:15:46.354Z,11
2023-02-22T01:16:54.758Z,11
2023-02-22T01:18:03.085Z,11
2023-02-22T01:19:11.670Z,10.4
2023-02-22T01:20:20.043Z,10.4
2023-02-22T01:21:28.405Z,10.4
2023-02-22T01:22:36.986Z,10.5
2023-02-22T01:23:45.388Z,10.5
2023-02-22T01:24:53.718Z,10.5
2023-02-22T01:26:02.341Z,13.5
2023-02-22T01:27:10.671Z,13.5
2023-02-22T01:28:19.078Z,13.5
2023-02-22T01:29:27.640Z,11.7
2023-02-22T01:30:36.142Z,11.7
2023-02-22T01:31:44.441Z,11.7
2023-02-22T01:32:52.996Z,11.8
2023-02-22T01:34:01.334Z,11.8
2023-02-22T01:35:09.741Z,11.8
2023-02-22T01:36:18.299Z,11.1
2023-02-22T01:37:26.701Z,11.1
2023-02-22T01:38:35.059Z,11.1
2023-02-22T01:39:43.631Z,11.8
2023-02-22T01:40:52.040Z,11.8
2023-02-22T01:42:00.426Z,11.8
2023-02-22T01:43:08.955Z,10.7
2023-02-22T01:44:17.320Z,10.7
2023-02-22T01:45:25.689Z,10.7
2023-02-22T01:46:34.248Z,10.9
2023-02-22T01:47:42.617Z,10.9
2023-02-22T01:48:50.988Z,10.9
2023-02-22T01:49:59.547Z,13
2023-02-22T01:51:07.928Z,13
2023-02-22T01:52:16.287Z,13
2023-02-22T01:53:24.908Z,10.7
2023-02-22T01:54:33.306Z,10.7
2023-02-22T01:55:41.663Z,10.7
2023-02-22T01:56:50.246Z,11.2
2023-02-22T01:57:58.631Z,11.2
2023-02-22T01:59:06.972Z,11.2
2023-02-22T02:00:15.576Z,13.4
2023-02-22T02:01:23.936Z,13.4
2023-02-22T02:02:32.292Z,13.4
2023-02-22T02:03:40.880Z,11
2023-02-22T02:04:49.303Z,11
2023-02-22T02:05:57.629Z,11
2023-02-22T02:07:06.232Z,10.8
2023-02-22T02:08:14.570Z,10.8
2023-02-22T02:09:22.935Z,10.8
2023-02-22T02:10:31.516Z,11.5
2023-02-22T02:11:39.876Z,11.5
2023-02-22T02:12:48.250Z,11.5
2023-02-22T02:13:56.838Z,11.6
2023-02-22T02:15:05.219Z,11.6
2023-02-22T02:16:13.593Z,11.6
2023-02-22T02:17:22.157Z,11.6
2023-02-22T02:18:30.508Z,11.6
2023-02-22T02:19:38.860Z,11.6
2023-02-22T02:20:47.441Z,11.4
2023-02-22T02:21:55.821Z,11.4
2023-02-22T02:23:04.180Z,11.4
2023-02-22T02:24:12.735Z,14.1
2023-02-22T02:25:21.131Z,14.1
2023-02-22T02:26:29.479Z,14.1
2023-02-22T02:27:38.042Z,13.8
2023-02-22T02:28:46.398Z,13.8
2023-02-22T02:29:54.788Z,13.8
2023-02-22T02:31:03.370Z,15.5
2023-02-22T02:32:11.797Z,15.5
2023-02-22T02:33:20.076Z,15.5
2023-02-22T02:34:28.651Z,15.3
2023-02-22T02:35:37.024Z,15.3
2023-02-22T02:36:45.388Z,15.3
2023-02-22T02:37:53.957Z,14.2
2023-02-22T02:39:02.311Z,14.2
2023-02-22T02:40:10.755Z,14.2
2023-02-22T02:41:19.445Z,16
2023-02-22T02:42:27.630Z,16
2023-02-22T02:43:35.992Z,16
2023-02-22T02:44:44.556Z,16.299999
2023-02-22T02:45:52.952Z,16.299999
2023-02-22T02:47:01.349Z,16.299999
2023-02-22T02:48:09.853Z,17.700001
2023-02-22T02:49:18.205Z,17.700001
2023-02-22T02:50:26.584Z,17.700001
2023-02-22T02:51:35.146Z,16.700001
2023-02-22T02:52:43.531Z,16.700001
2023-02-22T02:53:51.890Z,16.700001
2023-02-22T02:55:00.470Z,22.299999
2023-02-22T02:56:08.882Z,22.299999
2023-02-22T02:57:17.241Z,22.299999
2023-02-22T02:58:25.809Z,17.700001
2023-02-22T02:59:34.170Z,17.700001
2023-02-22T03:00:42.540Z,17.700001
2023-02-22T03:01:51.208Z,17.299999
2023-02-22T03:02:59.461Z,17.299999
2023-02-22T03:04:07.855Z,17.299999
2023-02-22T03:05:16.428Z,19.1
2023-02-22T03:06:24.786Z,19.1
2023-02-22T03:07:33.184Z,19.1
2023-02-22T03:08:41.730Z,18.6
2023-02-22T03:09:50.113Z,18.6
2023-02-22T03:10:58.472Z,18.6
2023-02-22T03:12:07.080Z,15.6
2023-02-22T03:13:15.438Z,15.6
2023-02-22T03:14:23.803Z,15.6
2023-02-22T03:15:32.378Z,15.8
2023-02-22T03:16:40.844Z,15.8
2023-02-22T03:17:49.172Z,15.8
2023-02-22T03:18:57.689Z,17.799999
2023-02-22T03:20:06.065Z,17.799999
2023-02-22T03:21:14.523Z,17.799999
2023-02-22T03:22:22.990Z,18.799999
2023-02-22T03:23:31.347Z,18.799999
2023-02-22T03:24:39.714Z,18.799999
2023-02-22T03:25:48.297Z,16.799999
2023-02-22T03:26:56.670Z,16.799999
2023-02-22T03:28:05.037Z,16.799999
2023-02-22T03:29:13.611Z,19.6
2023-02-22T03:30:22.040Z,19.6
2023-02-22T03:31:30.365Z,19.6
2023-02-22T03:32:38.929Z,19.4
2023-02-22T03:33:47.334Z,19.4
2023-02-22T03:34:55.676Z,19.4
2023-02-22T03:36:04.282Z,18.9
2023-02-22T03:37:12.662Z,18.9
2023-02-22T03:38:21.052Z,18.9
2023-02-22T03:39:29.591Z,19.5
2023-02-22T03:40:37.978Z,19.5
2023-02-22T03:41:46.340Z,19.5
2023-02-22T03:42:54.922Z,19.5
2023-02-22T03:44:03.283Z,19.5
2023-02-22T03:45:11.665Z,19.5
2023-02-22T03:46:20.289Z,20.700001
2023-02-22T03:47:28.604Z,20.700001
2023-02-22T03:48:36.947Z,20.700001
2023-02-22T03:49:45.542Z,20
2023-02-22T03:50:53.908Z,20
2023-02-22T03:52:02.294Z,20
2023-02-22T03:53:10.864Z,18.700001
2023-02-22T03:54:19.236Z,18.700001
2023-02-22T03:55:27.610Z,18.700001
2023-02-22T03:56:36.198Z,18.5
2023-02-22T03:57:44.556Z,18.5
2023-02-22T03:58:52.940Z,18.5
2023-02-22T04:00:01.515Z,20.299999
2023-02-22T04:01:09.909Z,20.299999
2023-02-22T04:02:18.290Z,20.299999
2023-02-22T04:03:26.862Z,17.799999
2023-02-22T04:04:35.283Z,17.799999
2023-02-22T04:05:43.664Z,17.799999
2023-02-22T04:06:52.221Z,19.700001
2023-02-22T04:08:00.575Z,19.700001
2023-02-22T04:09:08.917Z,19.700001
2023-02-22T04:10:17.505Z,20.1
2023-02-22T04:11:25.865Z,20.1
2023-02-22T04:12:34.231Z,20.1
2023-02-22T04:13:42.805Z,18.1
2023-02-22T04:14:51.180Z,18.1
2023-02-22T04:15:59.631Z,18.1
2023-02-22T04:17:08.157Z,18.200001
2023-02-22T04:18:16.527Z,18.200001
2023-02-22T04:19:24.878Z,18.200001
2023-02-22T04:20:33.454Z,19.4
2023-02-22T04:21:41.841Z,19.4
2023-02-22T04:22:50.174Z,19.4
2023-02-22T04:23:58.760Z,22.6
2023-02-22T04:25:07.124Z,22.6
2023-02-22T04:26:15.504Z,22.6
2023-02-22T04:27:24.057Z,21.9
2023-02-22T04:28:32.421Z,21.9
2023-02-22T04:29:40.768Z,21.9
2023-02-22T04:30:49.360Z,20.5
2023-02-22T04:31:57.803Z,20.5
2023-02-22T04:33:06.090Z,20.5
2023-02-22T04:34:16.291Z,17.700001
2023-02-22T04:35:26.744Z,17.700001
2023-02-22T04:36:35.145Z,17.700001
2023-02-22T04:37:43.754Z,17.799999
2023-02-22T04:38:52.101Z,17.799999
2023-02-22T04:40:00.449Z,17.799999
2023-02-22T04:41:09.034Z,17.700001
2023-02-22T04:42:17.382Z,17.700001
2023-02-22T04:43:25.756Z,17.700001
2023-02-22T04:44:34.337Z,19.700001
2023-02-22T04:45:42.714Z,19.700001
2023-02-22T04:46:51.100Z,19.700001
2023-02-22T04:47:59.660Z,18.700001
2023-02-22T04:49:08.003Z,18.700001
2023-02-22T04:50:16.373Z,18.700001
2023-02-22T04:51:24.942Z,18.5
2023-02-22T04:52:33.290Z,18.5
2023-02-22T04:53:41.726Z,18.5
2023-02-22T04:54:50.206Z,18.799999
2023-02-22T04:55:58.568Z,18.799999
2023-02-22T04:57:06.939Z,18.799999
2023-02-22T04:58:15.512Z,21.5
2023-02-22T04:59:23.866Z,21.5
2023-02-22T05:00:32.207Z,21.5
2023-02-22T05:01:40.802Z,17.5
2023-02-22T05:02:49.202Z,17.5
2023-02-22T05:03:57.490Z,17.5
2023-02-22T05:05:06.141Z,18.200001
2023-02-22T05:06:14.410Z,18.200001
2023-02-22T05:07:22.749Z,18.200001
2023-02-22T05:08:31.294Z,18.1
2023-02-22T05:09:39.688Z,18.1
2023-02-22T05:10:47.968Z,18.1
2023-02-22T05:11:56.578Z,20.5
2023-02-22T05:13:04.904Z,20.5
2023-02-22T05:14:13.246Z,20.5
2023-02-22T05:15:21.796Z,19.6
2023-02-22T05:16:30.144Z,19.6
2023-02-22T05:17:38.496Z,19.6
2023-02-22T05:18:47.071Z,18.799999
2023-02-22T05:19:55.442Z,18.799999
2023-02-22T05:21:03.802Z,18.799999
2023-02-22T05:22:12.420Z,15.9
2023-02-22T05:23:20.786Z,15.9
2023-02-22T05:24:29.159Z,15.9
2023-02-22T05:25:37.731Z,18.9
2023-02-22T05:26:46.093Z,18.9
2023-02-22T05:27:54.452Z,18.9
2023-02-22T05:29:02.997Z,19
2023-02-22T05:30:11.419Z,19
2023-02-22T05:31:20.083Z,19
2023-02-22T05:32:28.351Z,22.4
2023-02-22T05:33:36.750Z,22.4
2023-02-22T05:34:45.123Z,22.4
2023-02-22T05:35:53.698Z,19.299999
2023-02-22T05:37:02.073Z,19.299999
2023-02-22T05:38:10.434Z,19.299999
2023-02-22T05:39:19.007Z,18.700001
2023-02-22T05:40:27.369Z,18.700001
2023-02-22T05:41:35.767Z,18.700001
2023-02-22T05:42:44.322Z,17
2023-02-22T05:43:52.695Z,17
2023-02-22T05:45:01.062Z,17
2023-02-22T05:46:09.684Z,18.9
2023-02-22T05:47:17.991Z,18.9
2023-02-22T05:48:26.351Z,18.9
2023-02-22T05:49:34.928Z,19
2023-02-22T05:50:43.283Z,19
2023-02-22T05:51:51.659Z,19
2023-02-22T05:53:00.241Z,23.700001
2023-02-22T05:54:08.621Z,23.700001
2023-02-22T05:55:16.988Z,23.700001
2023-02-22T05:56:25.569Z,22.4
2023-02-22T05:57:33.961Z,22.4
2023-02-22T05:58:42.300Z,22.4
2023-02-22T05:59:50.885Z,21.5
2023-02-22T06:00:59.251Z,21.5
2023-02-22T06:02:07.662Z,21.5
2023-02-22T06:03:16.227Z,24.1
2023-02-22T06:04:24.627Z,24.1
2023-02-22T06:05:33.091Z,24.1
2023-02-22T06:06:41.576Z,20.9
2023-02-22T06:07:49.959Z,20.9
2023-02-22T06:08:58.327Z,20.9
2023-02-22T06:10:06.911Z,22.200001
2023-02-22T06:11:15.506Z,22.200001
2023-02-22T06:12:23.647Z,22.200001
2023-02-22T06:13:32.251Z,15.6
2023-02-22T06:14:40.589Z,15.6
2023-02-22T06:15:48.966Z,15.6
2023-02-22T06:16:57.534Z,16.299999
2023-02-22T06:18:05.900Z,16.299999
2023-02-22T06:19:14.321Z,16.299999
2023-02-22T06:20:22.928Z,18.200001
2023-02-22T06:21:31.268Z,18.200001
2023-02-22T06:22:39.669Z,18.200001
2023-02-22T06:23:48.231Z,16.299999
2023-02-22T06:24:56.609Z,16.299999
2023-02-22T06:26:04.959Z,16.299999
2023-02-22T06:27:13.533Z,18.200001
2023-02-22T06:28:21.918Z,18.200001
2023-02-22T06:29:30.281Z,18.200001
2023-02-22T06:30:38.893Z,21.4
2023-02-22T06:31:47.266Z,21.4
2023-02-22T06:32:55.611Z,21.4
2023-02-22T06:34:04.179Z,20.4
2023-02-22T06:35:12.539Z,20.4
2023-02-22T06:36:20.909Z,20.4
2023-02-22T06:37:29.456Z,23
2023-02-22T06:38:37.837Z,23
2023-02-22T06:39:46.193Z,23
2023-02-22T06:40:54.763Z,22.9
2023-02-22T06:42:03.196Z,22.9
2023-02-22T06:43:11.519Z,22.9
2023-02-22T06:44:20.091Z,18.4
2023-02-22T06:45:28.524Z,18.4
2023-02-22T06:46:36.813Z,18.4
2023-02-22T06:47:45.387Z,24.200001
2023-02-22T06:48:53.738Z,24.200001
2023-02-22T06:50:02.166Z,24.200001
2023-02-22T06:51:10.781Z,23.200001
2023-02-22T06:52:19.132Z,23.200001
2023-02-22T06:53:27.488Z,23.200001
2023-02-22T06:54:36.081Z,27.4
2023-02-22T06:55:44.453Z,27.4
2023-02-22T06:56:52.855Z,27.4
2023-02-22T06:58:01.432Z,25.9
2023-02-22T06:59:09.814Z,25.9
2023-02-22T07:00:18.170Z,25.9
2023-02-22T07:01:26.752Z,24
2023-02-22T07:02:35.110Z,24
2023-02-22T07:03:43.535Z,24
2023-02-22T07:04:52.020Z,20.700001
2023-02-22T07:06:00.367Z,20.700001
2023-02-22T07:07:08.701Z,20.700001
2023-02-22T07:08:17.282Z,23.5
2023-02-22T07:09:25.631Z,23.5
2023-02-22T07:10:34.032Z,23.5
2023-02-22T07:11:42.543Z,69.300003
2023-02-22T07:12:50.892Z,69.300003
2023-02-22T07:13:59.247Z,69.300003
2023-02-22T07:15:07.819Z,27.299999
2023-02-22T07:16:16.228Z,27.299999
2023-02-22T07:17:24.564Z,27.299999
2023-02-22T07:18:33.104Z,22.9
2023-02-22T07:19:41.460Z,22.9
2023-02-22T07:20:50.051Z,22.9
2023-02-22T07:21:58.618Z,22.6
2023-02-22T07:23:07.039Z,22.6
2023-02-22T07:24:16.693Z,22.6
2023-02-22T07:25:25.241Z,23.299999
2023-02-22T07:26:33.598Z,23.299999
2023-02-22T07:27:41.957Z,23.299999
2023-02-22T07:28:50.506Z,21.700001
2023-02-22T07:29:58.864Z,21.700001
2023-02-22T07:31:07.220Z,21.700001
2023-02-22T07:32:15.833Z,22.5
2023-02-22T07:33:24.171Z,22.5
2023-02-22T07:34:32.503Z,22.5
2023-02-22T07:35:41.102Z,19.4
2023-02-22T07:36:49.458Z,19.4
2023-02-22T07:37:57.891Z,19.4
2023-02-22T07:39:06.443Z,20.799999
2023-02-22T07:40:14.785Z,20.799999
2023-02-22T07:41:23.409Z,20.799999
2023-02-22T07:42:31.974Z,18.9
2023-02-22T07:43:40.315Z,18.9
2023-02-22T07:44:48.657Z,18.9
2023-02-22T07:45:57.248Z,20.200001
2023-02-22T07:47:05.584Z,20.200001
2023-02-22T07:48:15.085Z,20.200001
2023-02-22T07:49:22.534Z,19.700001
2023-02-22T07:50:31.262Z,19.700001
2023-02-22T07:51:39.270Z,19.700001
2023-02-22T07:52:48.814Z,20.6
2023-02-22T07:53:57.199Z,20.6
2023-02-22T07:55:05.538Z,20.6
2023-02-22T07:56:14.106Z,20.1
2023-02-22T07:57:22.467Z,20.1
2023-02-22T07:58:30.821Z,20.1
2023-02-22T07:59:39.371Z,21.200001
2023-02-22T08:00:47.734Z,21.200001
2023-02-22T08:01:56.071Z,21.200001
2023-02-22T08:03:04.641Z,18.4
2023-02-22T08:04:13.001Z,18.4
2023-02-22T08:05:21.372Z,18.4
2023-02-22T08:06:29.907Z,19.9
2023-02-22T08:07:38.244Z,19.9
2023-02-22T08:08:46.627Z,19.9
2023-02-22T08:09:55.170Z,22.9
2023-02-22T08:11:03.528Z,22.9
2023-02-22T08:12:11.875Z,22.9
2023-02-22T08:13:20.467Z,20.799999
2023-02-22T08:14:28.831Z,20.799999
2023-02-22T08:15:37.186Z,20.799999
2023-02-22T08:16:45.788Z,19.4
2023-02-22T08:17:54.100Z,19.4
2023-02-22T08:19:02.444Z,19.4
2023-02-22T08:20:11.017Z,17.9
2023-02-22T08:21:19.689Z,17.9
2023-02-22T08:22:27.713Z,17.9
2023-02-22T08:23:36.288Z,18
2023-02-22T08:24:44.662Z,18
2023-02-22T08:25:53.002Z,18
2023-02-22T08:27:01.567Z,18.299999
2023-02-22T08:28:09.912Z,18.299999
2023-02-22T08:29:18.277Z,18.299999
2023-02-22T08:30:26.874Z,16.700001
2023-02-22T08:31:35.215Z,16.700001
2023-02-22T08:32:43.642Z,16.700001
2023-02-22T08:33:52.072Z,17.700001
2023-02-22T08:35:00.445Z,17.700001
2023-02-22T08:36:08.782Z,17.700001
2023-02-22T08:37:17.437Z,17.700001
2023-02-22T08:38:25.793Z,17.700001
2023-02-22T08:39:34.130Z,17.700001
2023-02-22T08:40:42.692Z,15.7
2023-02-22T08:41:51.041Z,15.7
2023-02-22T08:42:59.381Z,15.7
2023-02-22T08:44:07.949Z,16.9
2023-02-22T08:45:16.293Z,16.9
2023-02-22T08:46:24.639Z,16.9
2023-02-22T08:47:33.201Z,13.8
2023-02-22T08:48:41.553Z,13.8
2023-02-22T08:49:49.910Z,13.8
2023-02-22T08:50:58.471Z,15
2023-02-22T08:52:06.801Z,15
2023-02-22T08:53:15.181Z,15
2023-02-22T08:54:23.712Z,13.5
2023-02-22T08:55:32.098Z,13.5
2023-02-22T08:56:40.429Z,13.5
2023-02-22T08:57:48.968Z,12.7
2023-02-22T08:58:57.325Z,12.7
2023-02-22T09:00:05.700Z,12.7
2023-02-22T09:01:19.212Z,11.9
2023-02-22T09:02:22.737Z,11.9
2023-02-22T09:03:31.029Z,11.9
2023-02-22T09:04:39.578Z,10.2
2023-02-22T09:05:47.994Z,10.2
2023-02-22T09:06:56.297Z,10.2
2023-02-22T09:08:04.842Z,16.299999
2023-02-22T09:09:13.233Z,16.299999
2023-02-22T09:10:21.548Z,16.299999
2023-02-22T09:11:30.124Z,12
2023-02-22T09:12:38.474Z,12
2023-02-22T09:13:46.806Z,12
2023-02-22T09:14:55.370Z,12.4
2023-02-22T09:16:03.714Z,12.4
2023-02-22T09:17:12.059Z,12.4
2023-02-22T09:18:20.618Z,10.5
2023-02-22T09:19:28.957Z,10.5
2023-02-22T09:20:37.299Z,10.5
2023-02-22T09:21:45.846Z,10.5
2023-02-22T09:22:54.198Z,10.5
2023-02-22T09:24:02.544Z,10.5
2023-02-22T09:25:16.555Z,9.4
2023-02-22T09:26:19.454Z,9.4
2023-02-22T09:27:27.801Z,9.4
2023-02-22T09:28:36.367Z,9.2
2023-02-22T09:29:44.713Z,9.2
2023-02-22T09:30:53.067Z,9.2
2023-02-22T09:32:01.781Z,10.7
2023-02-22T09:33:10.293Z,10.7
2023-02-22T09:34:18.322Z,10.7
2023-02-22T09:35:27.069Z,9.2
2023-02-22T09:36:35.225Z,9.2
2023-02-22T09:37:43.579Z,9.2
2023-02-22T09:38:52.140Z,10.4
2023-02-22T09:40:00.609Z,10.4
2023-02-22T09:41:08.864Z,10.4
2023-02-22T09:42:17.392Z,12.8
2023-02-22T09:43:25.736Z,12.8
2023-02-22T09:44:34.075Z,12.8
2023-02-22T09:45:42.651Z,9.1
2023-02-22T09:46:51.060Z,9.1
2023-02-22T09:48:05.204Z,9.1
2023-02-22T09:49:07.961Z,6.9
2023-02-22T09:50:16.321Z,6.9
2023-02-22T09:51:24.678Z,6.9
2023-02-22T09:52:33.213Z,5.1
2023-02-22T09:53:41.568Z,5.1
2023-02-22T09:54:49.940Z,5.1
2023-02-22T09:55:58.488Z,5.9
2023-02-22T09:57:06.878Z,5.9
2023-02-22T09:58:15.200Z,5.9
2023-02-22T09:59:23.742Z,8.8
2023-02-22T10:00:32.101Z,8.8
2023-02-22T10:01:40.451Z,8.8
2023-02-22T10:02:48.991Z,5.7
2023-02-22T10:03:57.418Z,5.7
2023-02-22T10:05:05.850Z,5.7
2023-02-22T10:06:14.278Z,4.5
2023-02-22T10:07:22.621Z,4.5
2023-02-22T10:08:31.464Z,4.5
2023-02-22T10:09:39.508Z,5.1
2023-02-22T10:10:47.868Z,5.1
2023-02-22T10:11:56.219Z,5.1
2023-02-22T10:13:04.779Z,5.2
2023-02-22T10:14:13.091Z,5.2
2023-02-22T10:15:21.468Z,5.2
2023-02-22T10:16:30.022Z,6.2
2023-02-22T10:17:38.362Z,6.2
2023-02-22T10:18:46.715Z,6.2
2023-02-22T10:19:55.252Z,7.6
2023-02-22T10:21:03.603Z,7.6
2023-02-22T10:22:11.950Z,7.6
2023-02-22T10:23:20.518Z,6.4
2023-02-22T10:24:28.853Z,6.4
2023-02-22T10:25:37.216Z,6.4
2023-02-22T10:26:45.761Z,5.8
2023-02-22T10:27:54.109Z,5.8
2023-02-22T10:29:02.486Z,5.8
2023-02-22T10:30:23.668Z,5.9
2023-02-22T10:31:19.470Z,5.9
2023-02-22T10:32:27.701Z,5.9
2023-02-22T10:33:36.236Z,6.8
2023-02-22T10:34:44.582Z,6.8
2023-02-22T10:35:52.969Z,6.8
2023-02-22T10:37:01.519Z,5.2
2023-02-22T10:38:09.867Z,5.2
2023-02-22T10:39:18.254Z,5.2
2023-02-22T10:40:26.779Z,6.9
2023-02-22T10:41:35.131Z,6.9
2023-02-22T10:42:43.463Z,6.9
2023-02-22T10:43:52.018Z,5.6
2023-02-22T10:45:00.419Z,5.6
2023-02-22T10:46:08.788Z,5.6
2023-02-22T10:47:18.281Z,6.8
2023-02-22T10:48:25.633Z,6.8
2023-02-22T10:49:33.986Z,6.8
2023-02-22T10:50:42.555Z,4.7
2023-02-22T10:51:50.908Z,4.7
2023-02-22T10:52:59.254Z,4.7
2023-02-22T10:54:07.809Z,4.1
2023-02-22T10:55:16.301Z,4.1
2023-02-22T10:56:24.508Z,4.1
2023-02-22T10:57:33.073Z,4.9
2023-02-22T10:58:41.428Z,4.9
2023-02-22T10:59:49.782Z,4.9
2023-02-22T11:00:58.388Z,4.7
2023-02-22T11:02:06.695Z,4.7
2023-02-22T11:03:15.054Z,4.7
2023-02-22T11:04:23.603Z,7.5
2023-02-22T11:05:31.967Z,7.5
2023-02-22T11:06:40.307Z,7.5
2023-02-22T11:07:48.860Z,4.5
2023-02-22T11:08:57.217Z,4.5
2023-02-22T11:10:05.561Z,4.5
2023-02-22T11:11:14.423Z,4.7
2023-02-22T11:12:22.533Z,4.7
2023-02-22T11:13:30.895Z,4.7
2023-02-22T11:14:39.437Z,4.8
2023-02-22T11:15:47.805Z,4.8
2023-02-22T11:16:56.419Z,4.8
2023-02-22T11:18:04.707Z,5
2023-02-22T11:19:13.061Z,5
2023-02-22T11:20:21.413Z,5
2023-02-22T11:21:29.961Z,5.2
2023-02-22T11:22:38.313Z,5.2
2023-02-22T11:23:46.681Z,5.2
2023-02-22T11:24:55.220Z,6.1
2023-02-22T11:26:03.568Z,6.1
2023-02-22T11:27:11.932Z,6.1
2023-02-22T11:28:20.481Z,5.2
2023-02-22T11:29:28.843Z,5.2
2023-02-22T11:30:37.309Z,5.2
2023-02-22T11:31:45.891Z,5.8
2023-02-22T11:32:54.115Z,5.8
2023-02-22T11:34:02.480Z,5.8
2023-02-22T11:35:10.999Z,5.5
2023-02-22T11:36:19.369Z,5.5
2023-02-22T11:37:27.730Z,5.5
2023-02-22T11:38:36.297Z,5.5
2023-02-22T11:39:44.775Z,5.5
2023-02-22T11:40:53.030Z,5.5
2023-02-22T11:42:01.556Z,5.4
2023-02-22T11:43:09.920Z,5.4
2023-02-22T11:44:18.272Z,5.4
2023-02-22T11:45:26.823Z,4.8
2023-02-22T11:46:35.225Z,4.8
2023-02-22T11:47:43.544Z,4.8
2023-02-22T11:48:52.156Z,6.7
2023-02-22T11:50:00.447Z,6.7
2023-02-22T11:51:08.809Z,6.7
2023-02-22T11:52:17.362Z,4.8
2023-02-22T11:53:25.714Z,4.8
2023-02-22T11:54:34.088Z,4.8
2023-02-22T11:55:43.955Z,4.7
2023-02-22T11:56:51.011Z,4.7
2023-02-22T11:57:59.353Z,4.7
2023-02-22T11:59:07.906Z,5.6
2023-02-22T12:00:16.571Z,5.6
2023-02-22T12:01:24.634Z,5.6
2023-02-22T12:02:33.201Z,4.7
2023-02-22T12:03:41.671Z,4.7
2023-02-22T12:04:50.151Z,4.7
2023-02-22T12:05:58.479Z,3.5
2023-02-22T12:07:06.821Z,3.5
2023-02-22T12:08:19.549Z,3.5
2023-02-22T12:09:23.746Z,6.9
2023-02-22T12:10:32.091Z,6.9
2023-02-22T12:11:40.442Z,6.9
2023-02-22T12:12:49.017Z,4.8
2023-02-22T12:13:57.347Z,4.8
2023-02-22T12:15:05.690Z,4.8
2023-02-22T12:16:14.319Z,4.8
2023-02-22T12:17:22.623Z,4.8
2023-02-22T12:18:30.966Z,4.8
2023-02-22T12:19:39.536Z,5.1
2023-02-22T12:20:47.917Z,5.1
2023-02-22T12:21:56.238Z,5.1
2023-02-22T12:23:04.816Z,5.2
2023-02-22T12:24:13.166Z,5.2
2023-02-22T12:25:21.544Z,5.2
2023-02-22T12:26:30.137Z,6.8
2023-02-22T12:27:38.501Z,6.8
2023-02-22T12:28:46.873Z,6.8
2023-02-22T12:29:55.411Z,7.7
2023-02-22T12:31:03.806Z,7.7
2023-02-22T12:32:12.193Z,7.7
2023-02-22T12:33:20.672Z,6.1
2023-02-22T12:34:29.022Z,6.1
2023-02-22T12:35:37.437Z,6.1
2023-02-22T12:36:46.073Z,4.5
2023-02-22T12:37:54.273Z,4.5
2023-02-22T12:39:03.699Z,4.5
2023-02-22T12:40:11.188Z,8.2
2023-02-22T12:41:19.617Z,8.2
2023-02-22T12:42:27.903Z,8.2
2023-02-22T12:43:36.458Z,6.2
2023-02-22T12:44:44.807Z,6.2
2023-02-22T12:45:53.173Z,6.2
2023-02-22T12:47:01.734Z,4.7
2023-02-22T12:48:10.067Z,4.7
2023-02-22T12:49:18.447Z,4.7
2023-02-22T12:50:27.011Z,5.3
2023-02-22T12:51:35.345Z,5.3
2023-02-22T12:52:43.737Z,5.3
2023-02-22T12:53:52.277Z,5
2023-02-22T12:55:00.632Z,5
2023-02-22T12:56:09.019Z,5
2023-02-22T12:57:17.603Z,4.9
2023-02-22T12:58:26.009Z,4.9
2023-02-22T12:59:34.403Z,4.9
2023-02-22T13:00:42.959Z,4.2
2023-02-22T13:01:51.351Z,4.2
2023-02-22T13:02:59.731Z,4.2
2023-02-22T13:04:19.670Z,24.6
2023-02-22T13:05:16.792Z,24.6
2023-02-22T13:06:25.089Z,24.6
2023-02-22T13:07:33.656Z,7
2023-02-22T13:08:42.063Z,7
2023-02-22T13:09:50.431Z,7
2023-02-22T13:10:59.025Z,81.400002
2023-02-22T13:12:07.389Z,81.400002
2023-02-22T13:13:15.838Z,81.400002
2023-02-22T13:14:24.419Z,11.2
2023-02-22T13:15:32.825Z,11.2
2023-02-22T13:16:41.170Z,11.2
2023-02-22T13:17:49.793Z,82.800003
2023-02-22T13:18:58.149Z,82.800003
2023-02-22T13:20:06.510Z,82.800003
2023-02-22T13:21:15.334Z,94.800003
2023-02-22T13:22:25.277Z,94.800003
2023-02-22T13:23:31.886Z,94.800003
2023-02-22T13:24:41.681Z,53.200001
2023-02-22T13:25:48.820Z,53.200001
2023-02-22T13:26:57.209Z,53.200001
2023-02-22T13:28:05.794Z,5.5
2023-02-22T13:29:14.160Z,5.5
2023-02-22T13:30:22.570Z,5.5
2023-02-22T13:31:31.248Z,11.7
2023-02-22T13:32:39.487Z,11.7
2023-02-22T13:33:47.838Z,11.7
2023-02-22T13:34:56.419Z,15.2
2023-02-22T13:36:04.806Z,15.2
2023-02-22T13:37:13.170Z,15.2
2023-02-22T13:38:21.906Z,34.200001
2023-02-22T13:39:30.308Z,34.200001
2023-02-22T13:40:38.685Z,34.200001
2023-02-22T13:41:47.216Z,70.800003
2023-02-22T13:42:55.594Z,70.800003
2023-02-22T13:44:03.947Z,70.800003
2023-02-22T13:45:12.518Z,81.300003
2023-02-22T13:46:20.916Z,81.300003
2023-02-22T13:47:29.254Z,81.300003
2023-02-22T13:48:37.818Z,7.4
2023-02-22T13:49:46.177Z,7.4
2023-02-22T13:50:54.546Z,7.4
2023-02-22T13:52:03.129Z,6.2
2023-02-22T13:53:11.510Z,6.2
2023-02-22T13:54:19.874Z,6.2
2023-02-22T13:55:28.426Z,18.4
2023-02-22T13:56:36.818Z,18.4
2023-02-22T13:57:45.234Z,18.4
2023-02-22T13:58:53.811Z,19.1
2023-02-22T14:00:02.174Z,19.1
2023-02-22T14:01:10.561Z,19.1
2023-02-22T14:02:19.123Z,20.799999
2023-02-22T14:03:27.469Z,20.799999
2023-02-22T14:04:35.859Z,20.799999
2023-02-22T14:05:44.491Z,12.8
2023-02-22T14:06:52.802Z,12.8
2023-02-22T14:08:01.239Z,12.8
2023-02-22T14:09:09.844Z,8.9
2023-02-22T14:10:18.237Z,8.9
2023-02-22T14:11:26.706Z,8.9
2023-02-22T14:12:35.483Z,16.1
2023-02-22T14:13:43.763Z,16.1
2023-02-22T14:14:52.120Z,16.1
2023-02-22T14:16:00.796Z,4.7
2023-02-22T14:17:09.071Z,4.7
2023-02-22T14:18:17.451Z,4.7
2023-02-22T14:19:26.060Z,4.4
2023-02-22T14:20:35.096Z,4.4
2023-02-22T14:21:42.851Z,4.4
2023-02-22T14:22:51.634Z,4.2
2023-02-22T14:23:59.927Z,4.2
2023-02-22T14:25:09.825Z,4.2
2023-02-22T14:26:17.757Z,14
2023-02-22T14:27:25.841Z,14
2023-02-22T14:28:34.279Z,14
2023-02-22T14:29:42.824Z,5.1
2023-02-22T14:30:51.223Z,5.1
2023-02-22T15:04:24.985Z,0
2023-02-22T15:05:33.288Z,0
2023-02-22T15:06:41.658Z,0
2023-02-22T15:07:50.201Z,12.2
2023-02-22T15:08:58.553Z,12.2
2023-02-22T15:10:06.910Z,12.2
2023-02-22T15:11:15.766Z,9.2
2023-02-22T15:12:23.829Z,9.2
2023-02-22T15:13:32.185Z,9.2
2023-02-22T15:14:40.729Z,5.3
2023-02-22T15:15:49.736Z,5.3
2023-02-22T15:16:57.439Z,5.3
2023-02-22T15:18:06.018Z,67.599998
2023-02-22T15:19:14.340Z,67.599998
2023-02-22T15:20:22.730Z,67.599998
2023-02-22T15:21:31.273Z,18.9
2023-02-22T15:22:39.646Z,18.9
2023-02-22T15:23:48.598Z,18.9